Latest Weather Observations for Badgerys Creek

IDN60801

Issued at 12:32 am EDT Sunday 16 December 2018 (issued every 10 minutes, with the page automatically refreshed every 10 minutes)

About weather observations | Map of weather stations | Latest weather observations for NSW | Other Formats
Station Details ID: 067108 Name: BADGERYS CREEK AWS Lat: -33.90 Lon: 150.73 Height: 81.2 m
Data from the previous 72 hours. | See also: Recent months at Badgerys Creek
Date/Time
EDT
Temp
°C
App
Temp
°C
Dew
Point
°C
Rel
Hum
%
Delta-T
°C
Wind Press
QNH
hPa
Press
MSL
hPa
Rain since
9am
mm
Dir  Spd
km/h
Gust
km/h
Spd
kts
Gust
kts
14/11:30am 20.7 22.1 20.4 98 0.2 NNW 13 17 7 9 1004.5 1004.2 3.2
14/11:00am 21.6 23.9 19.9 90 1.1 N 7 11 4 6 1003.6 1003.3 0.0
14/10:30am 22.1 25.3 19.8 87 1.5 NE 2 7 1 4 1002.5 1002.2 0.0
14/10:00am 22.1 25.0 19.8 87 1.5 ESE 4 7 2 4 1002.9 1002.6 0.0
14/09:30am 22.3 25.5 19.7 85 1.7 W 2 6 1 3 1003.2 1002.9 0.0
14/09:00am 21.5 24.1 20.1 92 0.9 W 6 7 3 4 1003.4 1003.1 22.8
14/08:30am 20.9 23.7 20.4 97 0.3 WSW 6 9 3 5 1002.3 1002.0 22.8
14/08:00am 20.2 23.3 20.2 100 0.0 SW 4 6 2 3 1002.2 1001.9 22.8
14/07:30am 19.7 22.5 19.7 100 0.0 SW 4 6 2 3 1002.2 1001.9 22.8
14/07:00am 19.4 22.1 19.4 100 0.0 WSW 4 6 2 3 1002.0 1001.7 22.8
14/06:30am 19.3 22.3 19.3 100 0.0 WSW 2 6 1 3 1001.5 1001.2 22.8
14/06:00am 19.1 21.1 19.1 100 0.0 WSW 7 9 4 5 1001.4 1001.1 22.8
14/05:30am 19.2 22.2 19.2 100 0.0 WSW 2 4 1 2 1001.3 1001.0 22.8
14/05:00am 18.9 21.0 18.9 100 0.0 SW 6 7 3 4 1000.7 1000.4 22.8
14/04:30am 18.8 21.2 18.8 100 0.0 SW 4 6 2 3 1000.7 1000.4 22.8
14/04:00am 18.7 20.1 18.7 100 0.0 SW 9 13 5 7 1000.4 1000.1 22.8
14/03:30am 18.7 20.1 18.7 100 0.0 SW 9 11 5 6 1001.0 1000.7 22.8
14/03:00am 18.7 21.1 18.7 100 0.0 SW 4 6 2 3 1000.7 1000.4 22.8
14/02:30am 18.7 21.8 18.7 100 0.0 CALM 0 2 0 1 1000.9 1000.6 22.8
14/02:00am 18.5 19.8 18.5 100 0.0 SW 9 11 5 6 1000.4 1000.1 22.8
14/01:30am 18.2 20.0 18.2 100 0.0 SW 6 7 3 4 1000.2 999.9 22.8
14/01:00am 18.1 19.8 18.1 100 0.0 SW 6 7 3 4 1000.6 1000.3 22.8
14/12:30am 18.1 20.2 18.1 100 0.0 WSW 4 4 2 2 1000.8 1000.5 22.8
14/12:00am 18.0 20.1 18.0 100 0.0 WSW 4 6 2 3 1001.1 1000.8 22.8
 
Date/Time
EDT
Temp
°C
App
Temp
°C
Dew
Point
°C
Rel
Hum
%
Delta-T
°C
Wind Press
QNH
hPa
Press
MSL
hPa
Rain since
9am
mm
Dir  Spd
km/h
Gust
km/h
Spd
kts
Gust
kts
13/11:30pm 17.9 19.5 17.9 100 0.0 WSW 6 7 3 4 1001.2 1000.9 22.8
13/11:00pm 17.7 19.2 17.7 100 0.0 SW 6 9 3 5 1000.6 1000.3 22.8
13/10:30pm 17.9 19.3 17.9 100 0.0 SW 7 9 4 5 1000.9 1000.6 22.8
13/10:00pm 17.9 19.0 17.9 100 0.0 WSW 9 13 5 7 1000.9 1000.6 22.8
13/09:30pm 18.1 17.3 18.1 100 0.0 SW 19 24 10 13 1001.2 1000.9 22.8
13/09:00pm 18.1 18.9 18.1 100 0.0 S 11 15 6 8 1001.0 1000.7 22.8
13/08:30pm 18.2 19.7 18.0 99 0.1 SE 7 15 4 8 1001.4 1001.1 22.2
13/08:00pm 18.4 19.5 18.1 98 0.2 WSW 9 13 5 7 1001.0 1000.7 20.8
13/07:30pm 18.4 13.2 17.4 94 0.6 W 41 67 22 36 1001.5 1001.2 13.8
13/07:29pm 18.4 12.6 17.4 94 0.6 W 44 67 24 36 1001.8 1001.5 11.4
13/07:28pm 18.1 11.8 17.0 93 0.7 W 46 67 25 36 1001.9 1001.6 8.8
13/07:25pm 17.7 11.2 15.1 85 1.5 W 43 67 23 36 1001.3 1001.0 3.8
13/07:20pm 21.8 20.7 20.3 91 1.0 WSW 26 52 14 28 1001.2 1000.9 2.2
13/07:17pm 21.7 22.4 20.5 93 0.8 SW 17 46 9 25 1000.5 1000.2 2.2
13/07:13pm 21.9 23.7 20.4 91 1.0 SSW 11 19 6 10 999.4 999.1 2.2
13/07:00pm 21.8 23.1 20.1 90 1.1 SE 13 20 7 11 997.4 997.0 2.2
13/06:30pm 22.7 23.5 19.9 84 1.8 SW 15 20 8 11 998.3 998.0 2.2
13/06:00pm 23.3 25.0 20.1 82 2.1 SSE 11 19 6 10 997.9 997.6 2.2
13/05:30pm 24.2 25.2 19.5 75 3.0 SSE 13 20 7 11 998.0 997.7 1.6
13/05:00pm 24.9 26.3 20.4 76 3.0 SE 13 22 7 12 998.0 997.7 1.6
13/04:30pm 25.1 26.1 21.0 78 2.7 E 17 24 9 13 997.9 997.6 1.6
13/04:00pm 23.4 25.2 21.1 87 1.5 NNE 13 22 7 12 999.0 998.7 1.6
13/03:30pm 27.4 27.7 18.7 59 5.6 ESE 15 26 8 14 998.5 998.2 0.0
13/03:00pm 28.2 29.3 18.9 57 6.0 E 11 22 6 12 999.0 998.7 0.0
13/02:30pm 29.7 30.4 18.8 52 7.1 NE 13 19 7 10 999.2 998.9 0.0
13/02:00pm 29.1 31.0 19.7 57 6.2 NE 9 22 5 12 1000.0 999.7 0.0
13/01:30pm 27.8 29.7 19.8 61 5.2 SSE 9 15 5 8 1000.2 999.9 0.0
13/01:00pm 25.6 28.0 18.8 66 4.4 NE 4 7 2 4 1001.7 1001.4 0.0
13/12:30pm 25.7 27.3 19.1 67 4.2 NNE 9 15 5 8 1002.3 1002.0 0.0
13/12:00pm 24.9 27.1 19.5 72 3.5 NE 7 13 4 7 1002.2 1001.9 0.0
13/11:30am 24.1 26.1 19.2 74 3.1 NNE 7 17 4 9 1002.7 1002.4 0.0
13/11:00am 22.2 24.2 18.8 81 2.2 N 6 7 3 4 1002.8 1002.5 0.0
13/10:30am 21.7 24.1 18.9 84 1.8 N 4 6 2 3 1003.4 1003.1 0.0
13/10:00am 21.4 23.9 19.0 86 1.5 N 4 6 2 3 1003.7 1003.4 0.0
13/09:30am 21.4 23.7 18.6 84 1.8 N 4 6 2 3 1004.2 1003.9 0.0
13/09:00am 21.4 23.9 19.0 86 1.5 N 4 11 2 6 1004.8 1004.4 0.8
13/08:30am 20.9 23.2 19.4 91 1.0 N 6 7 3 4 1004.9 1004.5 0.8
13/08:00am 19.9 22.1 19.2 96 0.4 NNE 6 9 3 5 1004.8 1004.4 0.8
13/07:30am 19.6 21.8 19.3 98 0.2 NNE 6 9 3 5 1005.0 1004.6 0.8
13/07:00am 19.5 21.7 19.3 99 0.1 N 6 9 3 5 1004.8 1004.4 0.8
13/06:30am 19.2 22.5 19.0 99 0.1 CALM 0 2 0 1 1004.6 1004.3 0.8
13/06:00am 19.1 21.5 18.9 99 0.1 NW 4 6 2 3 1004.8 1004.4 0.8
13/05:30am 19.2 20.7 19.0 99 0.1 N 9 13 5 7 1004.5 1004.2 0.8
13/05:00am 18.9 18.9 18.9 100 0.0 ENE 17 24 9 13 1003.2 1002.9 0.8
13/04:54am 18.8 19.5 18.8 100 0.0 ENE 13 24 7 13 1003.3 1003.0 0.6
13/04:30am 18.8 21.5 18.6 99 0.1 N 2 2 1 1 1005.4 1005.0 0.6
13/04:00am 19.1 22.3 18.8 98 0.2 CALM 0 0 0 0 1006.4 1006.0 0.6
13/03:30am 19.4 22.5 18.6 95 0.5 CALM 0 0 0 0 1007.2 1006.8 0.4
13/03:00am 19.5 22.2 18.7 95 0.5 N 2 4 1 2 1007.5 1007.1 0.0
13/02:30am 19.5 21.9 18.7 95 0.5 ENE 4 6 2 3 1007.9 1007.5 0.0
13/02:00am 19.6 22.3 18.6 94 0.6 ENE 2 4 1 2 1007.8 1007.4 0.0
13/01:30am 19.8 22.7 18.3 91 0.9 CALM 0 0 0 0 1008.1 1007.7 0.0
13/01:00am 20.0 22.9 18.3 90 1.1 CALM 0 2 0 1 1008.5 1008.2 0.0

Other Formats:

Comma delimited format used in spreadsheet applications
http://www.bom.gov.au/fwo/IDN60801/IDN60801.94752.axf

JavaScript Object Notation format (JSON) in row-major order
http://www.bom.gov.au/fwo/IDN60801/IDN60801.94752.json